Time;durP1;ratioP1;P1;durP2;ratioP2;P2;SDS_P1;SDS_P2;PMS_P1;PMS_P2;Temp;Humidity;BMP_temperature;BMP_pressure;BME280_temperature;BME280_humidity;BME280_pressure;Samples;Min_cycle;Max_cycle;Signal;HPM_P1;HPM_P2
2021/01/06 00:02:20;;;;;;;1.65;1.63;;;18.00;63.70;;;;;;5067907;28;20041;-72
2021/01/06 00:04:46;;;;;;;2.10;2.00;;;18.00;63.80;;;;;;5068239;28;20067;-72
2021/01/06 00:07:11;;;;;;;1.95;1.85;;;18.00;63.70;;;;;;5068203;28;20074;-82
2021/01/06 00:09:37;;;;;;;1.80;1.70;;;18.00;63.50;;;;;;5067581;28;20024;-80
2021/01/06 00:12:07;;;;;;;2.10;2.00;;;18.00;63.30;;;;;;5067513;28;20545;-77
2021/01/06 00:14:33;;;;;;;1.60;1.50;;;18.00;63.20;;;;;;5067643;28;20032;-76
2021/01/06 00:16:58;;;;;;;2.17;2.08;;;18.00;63.20;;;;;;5069777;28;20484;-77
2021/01/06 00:19:24;;;;;;;1.98;1.88;;;18.00;63.20;;;;;;5070307;28;20041;-77
2021/01/06 00:21:50;;;;;;;1.80;1.70;;;17.90;63.00;;;;;;5068621;28;20042;-78
2021/01/06 00:24:16;;;;;;;1.90;1.80;;;17.90;63.00;;;;;;5068244;28;20016;-77
2021/01/06 00:26:41;;;;;;;1.75;1.65;;;17.90;63.00;;;;;;5067250;28;20542;-78
2021/01/06 00:29:08;;;;;;;2.13;2.03;;;17.90;62.90;;;;;;5067629;28;20028;-75
2021/01/06 00:31:41;;;;;;;1.65;1.55;;;17.90;62.90;;;;;;5070644;28;20039;-75
2021/01/06 00:34:07;;;;;;;1.63;1.52;;;17.90;62.80;;;;;;5069032;28;20107;-76
2021/01/06 08:09:10;;;;;;;1.73;1.63;;;17.90;64.40;;;;;;5090407;27;20850;-50
2021/01/06 08:11:46;;;;;;;1.92;1.83;;;17.80;66.70;;;;;;5073489;28;20035;-52
2021/01/06 08:14:22;;;;;;;1.73;1.63;;;17.80;66.40;;;;;;5068740;28;20045;-54
2021/01/06 08:16:56;;;;;;;1.70;1.60;;;17.80;66.30;;;;;;5069572;28;20042;-52
2021/01/06 08:19:39;;;;;;;2.00;1.90;;;17.80;66.10;;;;;;5082556;28;20105;-51
2021/01/06 08:22:27;;;;;;;1.80;1.70;;;17.90;65.70;;;;;;5064958;28;20043;-53
2021/01/06 08:25:17;;;;;;;2.17;1.30;;;17.90;65.60;;;;;;5064770;28;20025;-54
2021/01/06 08:27:42;;;;;;;1.80;1.70;;;18.00;65.80;;;;;;5082257;28;20112;-53
2021/01/06 08:30:28;;;;;;;1.80;1.70;;;18.10;65.60;;;;;;5082215;28;20159;-52
2021/01/06 08:33:07;;;;;;;1.52;1.42;;;18.20;65.30;;;;;;5069897;28;20025;-55
2021/01/06 08:35:35;;;;;;;1.75;1.65;;;18.20;64.80;;;;;;5069662;28;20021;-54
2021/01/06 08:38:01;;;;;;;1.48;1.38;;;18.30;64.40;;;;;;5069905;28;20025;-52
2021/01/06 08:40:35;;;;;;;1.45;1.35;;;18.30;64.10;;;;;;5067619;28;20404;-54
2021/01/06 08:43:01;;;;;;;;;;;18.30;63.90;;;;;;5067589;28;20167;-50
2021/01/06 08:45:33;;;;;;;1.60;1.50;;;18.30;63.50;;;;;;5104626;28;19932;-52
2021/01/06 08:48:36;;;;;;;1.75;1.65;;;18.40;63.40;;;;;;5068775;28;20115;-53
2021/01/06 08:51:12;;;;;;;1.80;1.70;;;18.40;63.10;;;;;;5066465;28;20045;-53
2021/01/06 08:53:39;;;;;;;1.70;1.60;;;18.40;62.80;;;;;;5066188;28;20017;-52
2021/01/06 08:56:23;;;;;;;1.65;1.55;;;18.50;62.50;;;;;;5062748;28;20050;-53
2021/01/06 08:58:50;;;;;;;1.67;1.65;;;18.40;62.60;;;;;;5073892;28;20027;-53
2021/01/06 09:01:42;;;;;;;1.67;1.58;;;18.50;62.50;;;;;;5081413;28;20040;-53
2021/01/06 09:04:18;;;;;;;2.08;1.98;;;18.50;62.20;;;;;;5077160;28;20036;-44
2021/01/06 09:06:51;;;;;;;1.80;1.70;;;18.40;62.20;;;;;;5079896;28;20025;-43
2021/01/06 09:09:45;;;;;;;1.70;1.60;;;18.40;61.90;;;;;;5083467;28;20045;-43
2021/01/06 09:12:41;;;;;;;2.17;2.08;;;18.40;62.30;;;;;;5072198;28;20064;-43
2021/01/06 09:15:12;;;;;;;1.60;1.50;;;18.40;61.90;;;;;;5064809;28;20479;-44
2021/01/06 09:17:44;;;;;;;1.98;1.88;;;18.40;62.00;;;;;;5058889;28;20052;-42
2021/01/06 09:20:15;;;;;;;1.83;1.52;;;18.40;61.80;;;;;;5051027;28;20025;-41
2021/01/06 09:22:40;;;;;;;1.70;1.60;;;18.40;61.80;;;;;;5054258;28;20561;-42
2021/01/06 09:25:07;;;;;;;1.92;1.50;;;18.50;61.80;;;;;;5031380;28;20042;-43
2021/01/06 09:27:35;;;;;;;1.90;1.80;;;18.40;61.80;;;;;;5050695;28;20037;-47
2021/01/06 09:30:04;;;;;;;1.70;1.60;;;18.40;61.60;;;;;;5063867;28;20071;-45
2021/01/06 09:32:35;;;;;;;1.92;1.83;;;18.40;61.70;;;;;;5048936;28;20021;-44
2021/01/06 09:35:05;;;;;;;1.70;1.60;;;18.40;61.70;;;;;;5050574;28;20124;-44
2021/01/06 09:37:32;;;;;;;2.30;2.20;;;18.40;61.60;;;;;;5064917;28;20032;-46
2021/01/06 09:40:31;;;;;;;2.20;1.92;;;18.40;61.00;;;;;;5055320;28;20033;-47
2021/01/06 09:42:59;;;;;;;3.80;3.50;;;18.40;61.40;;;;;;5044692;28;20041;-49
2021/01/06 09:45:26;;;;;;;5.63;5.13;;;18.40;61.30;;;;;;5029779;28;20029;-45
2021/01/06 09:47:55;;;;;;;5.85;5.35;;;18.40;61.50;;;;;;5026872;28;20128;-48
2021/01/06 09:50:24;;;;;;;6.63;6.03;;;18.40;62.30;;;;;;5011254;28;20124;-42
2021/01/06 09:52:50;;;;;;;7.22;6.63;;;18.30;61.40;;;;;;5010550;28;20447;-42
2021/01/06 09:55:18;;;;;;;7.65;6.85;;;18.40;61.40;;;;;;4993996;28;20026;-45
2021/01/06 09:57:44;;;;;;;7.63;6.93;;;18.40;61.10;;;;;;5012876;28;20072;-42
2021/01/06 10:00:54;;;;;;;7.50;6.85;;;18.40;60.90;;;;;;4997376;28;20041;-44
2021/01/06 10:03:20;;;;;;;7.93;7.20;;;18.40;61.00;;;;;;5028508;28;20059;-40
2021/01/06 10:06:10;;;;;;;8.55;7.75;;;18.40;62.20;;;;;;5026229;28;20040;-44
2021/01/06 10:08:59;;;;;;;8.32;7.53;;;18.40;60.60;;;;;;5021792;28;20092;-42
2021/01/06 10:11:43;;;;;;;7.82;7.10;;;18.40;61.20;;;;;;4994721;28;20465;-45
2021/01/06 10:14:44;;;;;;;7.28;6.75;;;18.40;61.10;;;;;;5024391;28;20036;-44
2021/01/06 10:17:25;;;;;;;7.43;6.72;;;18.40;61.10;;;;;;4967002;28;20054;-44
2021/01/06 10:20:12;;;;;;;6.32;5.82;;;18.50;61.10;;;;;;4998431;28;20134;-43
2021/01/06 10:22:55;;;;;;;7.97;7.18;;;18.50;61.20;;;;;;4977891;28;20564;-41
2021/01/06 10:25:31;;;;;;;6.80;6.25;;;18.40;61.10;;;;;;4994525;28;20038;-42
2021/01/06 10:28:00;;;;;;;6.80;6.20;;;18.50;61.10;;;;;;4998065;28;20533;-43
2021/01/06 10:30:28;;;;;;;7.40;6.70;;;18.50;61.10;;;;;;4974406;28;20065;-43
2021/01/06 10:33:21;;;;;;;6.85;6.35;;;18.50;61.00;;;;;;4990974;28;20046;-46
2021/01/06 10:36:05;;;;;;;6.47;5.97;;;18.50;61.00;;;;;;4991796;28;20039;-44
2021/01/06 10:38:44;;;;;;;5.93;5.47;;;18.50;61.10;;;;;;4998434;28;20177;-44
2021/01/06 10:41:18;;;;;;;5.93;5.53;;;18.50;60.90;;;;;;4993904;28;20022;-44
2021/01/06 10:43:45;;;;;;;6.05;5.55;;;18.50;61.10;;;;;;4992465;28;20124;-44
2021/01/06 10:46:41;;;;;;;5.68;5.28;;;18.50;60.90;;;;;;5003792;28;20027;-46
2021/01/06 10:49:19;;;;;;;5.70;5.20;;;18.50;60.90;;;;;;4972472;28;20039;-41
2021/01/06 10:51:57;;;;;;;5.18;4.78;;;18.50;60.80;;;;;;5033107;28;20070;-46
2021/01/06 10:54:44;;;;;;;6.15;5.68;;;18.50;60.80;;;;;;5058756;28;20028;-45
2021/01/06 10:57:22;;;;;;;5.35;5.05;;;18.50;60.90;;;;;;5039761;28;20032;-52
2021/01/06 11:00:10;;;;;;;5.50;5.10;;;18.50;60.90;;;;;;5039453;28;20033;-40
2021/01/06 11:03:15;;;;;;;5.20;4.90;;;18.50;60.90;;;;;;5039980;28;20033;-42
2021/01/06 11:05:51;;;;;;;5.05;4.72;;;18.50;60.90;;;;;;5040516;28;20104;-48
2021/01/06 11:08:23;;;;;;;6.47;5.97;;;18.50;60.90;;;;;;5039804;28;20041;-46
2021/01/06 11:11:12;;;;;;;5.82;5.32;;;18.50;60.90;;;;;;5039772;28;20051;-43
2021/01/06 11:14:05;;;;;;;5.45;5.05;;;18.50;60.90;;;;;;5033709;28;20041;-51
2021/01/06 11:16:45;;;;;;;5.72;5.32;;;18.50;61.40;;;;;;5039946;28;20059;-39
2021/01/06 11:19:52;;;;;;;5.30;4.93;;;18.50;61.70;;;;;;5053822;28;20056;-55
2021/01/06 11:22:38;;;;;;;6.07;5.57;;;18.50;62.20;;;;;;5038770;28;20382;-50
2021/01/06 11:25:23;;;;;;;5.32;5.03;;;18.50;62.50;;;;;;5040100;28;20119;-46
2021/01/06 11:28:05;;;;;;;5.45;4.95;;;18.50;62.50;;;;;;5039492;28;20139;-52
2021/01/06 11:30:38;;;;;;;4.20;4.00;;;18.50;62.60;;;;;;5038660;28;20045;-45
2021/01/06 11:33:13;;;;;;;4.57;4.20;;;18.50;62.70;;;;;;5040377;28;20033;-56
2021/01/06 11:36:07;;;;;;;6.30;5.70;;;18.50;63.00;;;;;;5038627;28;20032;-58
2021/01/06 11:38:41;;;;;;;5.03;4.72;;;18.50;63.60;;;;;;5039169;28;20032;-56
2021/01/06 11:41:25;;;;;;;5.47;4.97;;;18.50;63.30;;;;;;5039579;28;20025;-52
2021/01/06 11:44:11;;;;;;;6.32;5.75;;;18.50;63.40;;;;;;5039429;28;20037;-46
2021/01/06 11:46:46;;;;;;;7.53;6.90;;;18.50;63.60;;;;;;5039404;28;20032;-51
2021/01/06 11:49:11;;;;;;;9.52;7.20;;;18.50;63.80;;;;;;5038417;28;20533;-52
2021/01/06 11:51:40;;;;;;;7.47;6.63;;;18.50;64.00;;;;;;5040488;28;20083;-46
2021/01/06 11:54:13;;;;;;;8.32;7.20;;;18.50;64.00;;;;;;5039084;28;20041;-50
2021/01/06 11:56:53;;;;;;;15.45;8.60;;;18.60;64.00;;;;;;5037599;28;20028;-43
2021/01/06 11:59:45;;;;;;;10.93;8.13;;;18.60;63.90;;;;;;5036719;28;20036;-52
2021/01/06 12:02:55;;;;;;;9.80;8.38;;;18.70;63.60;;;;;;5037892;28;20025;-48
2021/01/06 12:05:23;;;;;;;8.55;7.65;;;18.70;63.40;;;;;;5038758;28;20033;-53
2021/01/06 12:08:18;;;;;;;9.00;7.97;;;18.70;62.80;;;;;;5038445;28;20045;-38
2021/01/06 12:11:16;;;;;;;11.00;8.63;;;18.60;62.50;;;;;;5037949;28;20033;-48
2021/01/06 12:14:13;;;;;;;11.90;8.23;;;18.60;61.70;;;;;;4976887;28;20050;-46
2021/01/06 12:16:47;;;;;;;9.85;8.70;;;18.60;61.00;;;;;;4976845;28;20057;-40
2021/01/06 12:19:28;;;;;;;;;;;18.60;60.70;;;;;;4975861;28;20046;-49
2021/01/06 12:22:09;;;;;;;9.75;8.00;;;18.60;60.40;;;;;;4976125;28;20018;-54
2021/01/06 12:24:35;;;;;;;10.82;8.52;;;18.60;60.40;;;;;;4977603;28;20073;-45
2021/01/06 12:27:08;;;;;;;11.20;8.63;;;18.60;60.30;;;;;;4975480;28;20313;-44
2021/01/06 12:29:46;;;;;;;9.68;8.45;;;18.60;60.30;;;;;;4975432;28;20572;-42
2021/01/06 12:32:38;;;;;;;8.15;7.32;;;18.60;60.50;;;;;;4976606;28;20043;-43
2021/01/06 12:35:19;;;;;;;8.45;7.60;;;18.50;60.50;;;;;;4976546;28;20532;-42
2021/01/06 12:38:04;;;;;;;8.52;7.28;;;18.60;59.80;;;;;;4976858;28;20046;-44
2021/01/06 12:40:30;;;;;;;10.85;9.38;;;18.60;59.50;;;;;;4975403;28;20175;-42
2021/01/06 12:42:57;;;;;;;11.80;8.35;;;18.70;59.80;;;;;;4976956;28;20525;-43
2021/01/06 12:45:34;;;;;;;8.60;7.50;;;18.70;59.80;;;;;;4961831;28;20054;-42
2021/01/06 12:48:18;;;;;;;10.43;7.75;;;18.80;60.10;;;;;;4977457;28;20121;-45
2021/01/06 12:51:06;;;;;;;7.70;6.70;;;18.80;59.90;;;;;;4997304;28;20082;-45
2021/01/06 12:53:37;;;;;;;7.53;6.10;;;18.80;59.70;;;;;;5051238;28;20032;-45
2021/01/06 12:56:06;;;;;;;9.10;6.85;;;18.80;59.50;;;;;;5050690;28;20039;-42
2021/01/06 12:58:34;;;;;;;6.90;6.25;;;18.90;59.50;;;;;;5070092;28;20044;-43
2021/01/06 13:01:03;;;;;;;7.15;5.80;;;18.80;59.70;;;;;;5053888;28;20500;-43
2021/01/06 13:03:51;;;;;;;6.65;5.82;;;18.80;59.80;;;;;;5069934;28;20033;-43
2021/01/06 13:06:30;;;;;;;6.50;5.90;;;18.80;59.90;;;;;;5068631;28;20033;-46
2021/01/06 13:09:11;;;;;;;7.65;6.78;;;18.70;59.80;;;;;;5054628;28;20049;-41
2021/01/06 13:11:37;;;;;;;6.20;5.60;;;18.80;59.80;;;;;;5046879;28;20029;-42
2021/01/06 13:14:26;;;;;;;6.35;5.72;;;18.90;59.50;;;;;;5046082;28;20036;-42
2021/01/06 13:17:04;;;;;;;6.05;5.45;;;18.90;59.40;;;;;;5051745;28;20029;-42
2021/01/06 13:19:41;;;;;;;5.53;5.05;;;19.00;59.30;;;;;;5048529;28;20033;-43
2021/01/06 13:22:24;;;;;;;5.47;5.05;;;19.00;59.30;;;;;;5029843;28;20074;-41
2021/01/06 13:25:09;;;;;;;7.47;5.95;;;19.10;59.40;;;;;;4712629;28;10000085;-41
2021/01/06 13:27:40;;;;;;;6.72;6.13;;;19.10;59.50;;;;;;5057927;28;20025;-43
2021/01/06 13:30:35;;;;;;;7.32;5.38;;;19.00;59.40;;;;;;5066116;28;20047;-39
2021/01/06 13:33:15;;;;;;;5.25;4.88;;;19.10;59.50;;;;;;5010216;28;20042;-43
2021/01/06 13:36:01;;;;;;;5.80;5.30;;;19.10;59.30;;;;;;5011453;28;20034;-45
2021/01/06 13:38:31;;;;;;;5.10;4.60;;;19.10;59.20;;;;;;4988369;28;20049;-44
2021/01/06 13:41:00;;;;;;;5.43;5.03;;;19.10;59.10;;;;;;4998589;28;20072;-43
2021/01/06 13:43:41;;;;;;;6.28;5.78;;;19.20;59.00;;;;;;4982153;28;20164;-42
2021/01/06 13:46:33;;;;;;;5.43;4.95;;;19.10;59.20;;;;;;4998312;28;20069;-45
2021/01/06 13:49:02;;;;;;;5.32;4.68;;;19.10;59.10;;;;;;4998889;28;20077;-41
2021/01/06 13:51:37;;;;;;;5.03;4.63;;;19.20;59.10;;;;;;4999638;28;21012;-46
2021/01/06 13:54:25;;;;;;;5.22;4.80;;;19.20;59.00;;;;;;4996480;28;20041;-39
2021/01/06 13:56:55;;;;;;;5.43;4.97;;;19.20;58.90;;;;;;4997606;28;20042;-48
2021/01/06 13:59:44;;;;;;;4.65;4.35;;;19.20;58.90;;;;;;4998240;28;20088;-51
2021/01/06 14:02:18;;;;;;;4.72;4.43;;;19.20;58.80;;;;;;4998206;28;20038;-49
2021/01/06 14:04:53;;;;;;;6.88;5.50;;;19.20;58.80;;;;;;4996976;28;20084;-42
2021/01/06 14:07:25;;;;;;;5.05;4.65;;;19.20;59.00;;;;;;4997155;28;20061;-46
2021/01/06 14:10:06;;;;;;;6.32;5.82;;;19.20;58.90;;;;;;5026051;28;20118;-42
2021/01/06 14:12:46;;;;;;;6.22;5.72;;;19.20;59.10;;;;;;5041047;28;20033;-44
2021/01/06 14:15:39;;;;;;;6.13;5.53;;;19.10;59.40;;;;;;5041314;28;20033;-44
2021/01/06 14:18:36;;;;;;;6.28;5.68;;;19.00;59.50;;;;;;5041295;28;20366;-45
2021/01/06 14:21:18;;;;;;;5.35;4.95;;;18.90;59.80;;;;;;5039494;28;20055;-44
2021/01/06 14:23:51;;;;;;;6.32;5.82;;;18.90;59.90;;;;;;5040157;28;20546;-44
2021/01/06 14:26:29;;;;;;;5.93;5.38;;;18.90;59.90;;;;;;5039785;28;20024;-44
2021/01/06 14:29:31;;;;;;;5.75;5.00;;;18.90;60.00;;;;;;5040080;28;20090;-48
2021/01/06 14:32:15;;;;;;;5.03;4.60;;;18.90;60.10;;;;;;5041839;28;20043;-46
2021/01/06 14:34:54;;;;;;;7.10;5.37;;;18.90;60.00;;;;;;5040686;28;20033;-44
2021/01/06 14:37:22;;;;;;;5.40;4.93;;;19.00;59.80;;;;;;5038915;28;20283;-44
2021/01/06 14:40:21;;;;;;;5.18;4.68;;;19.00;59.80;;;;;;5039419;28;20057;-44
2021/01/06 14:43:12;;;;;;;4.72;4.40;;;19.00;59.60;;;;;;5039424;28;20064;-47
2021/01/06 14:46:02;;;;;;;4.10;3.80;;;19.00;59.60;;;;;;5039351;28;20121;-43
2021/01/06 14:48:36;;;;;;;5.18;4.68;;;19.10;59.60;;;;;;5040303;28;20050;-42
2021/01/06 14:51:19;;;;;;;4.30;4.00;;;19.10;59.50;;;;;;5038477;28;20093;-43
2021/01/06 14:53:58;;;;;;;4.72;4.32;;;19.10;59.40;;;;;;5038630;28;20039;-46
2021/01/06 14:56:29;;;;;;;5.00;4.50;;;19.10;59.60;;;;;;4688723;28;10000460;-44
2021/01/06 14:59:12;;;;;;;4.60;4.25;;;19.10;59.40;;;;;;5033764;28;20044;-46
2021/01/06 15:02:14;;;;;;;3.90;3.70;;;19.20;59.10;;;;;;5035480;28;20055;-48
2021/01/06 15:04:41;;;;;;;4.88;4.13;;;19.20;58.90;;;;;;4974164;28;20042;-44
2021/01/06 15:07:37;;;;;;;5.18;4.30;;;19.30;58.80;;;;;;4974252;28;20050;-48
2021/01/06 15:10:25;;;;;;;4.65;4.30;;;19.30;58.90;;;;;;4975343;28;20573;-51
2021/01/06 15:13:12;;;;;;;5.20;4.68;;;19.20;58.90;;;;;;4975499;28;20510;-44
2021/01/06 15:15:41;;;;;;;4.80;4.50;;;19.20;59.10;;;;;;4975461;28;20073;-47
2021/01/06 15:18:22;;;;;;;5.18;4.75;;;19.20;59.00;;;;;;4974573;28;20426;-49
2021/01/06 15:20:54;;;;;;;5.18;4.60;;;19.20;59.10;;;;;;4974800;28;20030;-45
2021/01/06 15:23:29;;;;;;;4.75;4.43;;;19.20;59.00;;;;;;4973877;28;20053;-44
2021/01/06 15:25:56;;;;;;;5.13;4.50;;;19.20;59.00;;;;;;4975426;28;20026;-44
2021/01/06 15:28:40;;;;;;;5.25;4.80;;;19.30;58.80;;;;;;4975283;28;20057;-43
2021/01/06 15:31:09;;;;;;;4.43;4.03;;;19.20;58.30;;;;;;4974408;28;20066;-41
2021/01/06 15:33:46;;;;;;;4.45;4.15;;;19.20;58.40;;;;;;4974731;28;20031;-41
2021/01/06 15:36:17;;;;;;;4.10;3.83;;;19.20;58.30;;;;;;4975347;28;20042;-42
2021/01/06 15:38:47;;;;;;;4.72;4.43;;;19.20;58.00;;;;;;4973874;28;20046;-42
2021/01/06 15:41:13;;;;;;;4.63;4.22;;;19.20;57.80;;;;;;4989989;28;20132;-42
2021/01/06 15:43:45;;;;;;;5.32;4.93;;;19.10;58.20;;;;;;5033794;28;20040;-43
2021/01/06 15:46:27;;;;;;;5.18;4.82;;;19.10;58.40;;;;;;5032342;28;20140;-49
2021/01/06 15:48:58;;;;;;;5.40;4.78;;;19.10;58.60;;;;;;5064956;28;20557;-43
2021/01/06 15:51:30;;;;;;;5.10;4.78;;;19.10;58.50;;;;;;5032634;28;20032;-42
2021/01/06 15:54:10;;;;;;;5.15;4.75;;;19.10;58.70;;;;;;5030695;28;20036;-43
2021/01/06 15:56:40;;;;;;;4.93;4.63;;;19.10;58.70;;;;;;5032374;28;20472;-41
2021/01/06 15:59:08;;;;;;;5.07;4.70;;;19.10;58.80;;;;;;5032247;28;20045;-43
2021/01/06 16:01:33;;;;;;;4.78;4.47;;;19.10;58.70;;;;;;5031077;28;20025;-42
2021/01/06 16:04:07;;;;;;;5.05;4.65;;;19.10;58.70;;;;;;5031345;28;20051;-39
2021/01/06 16:06:54;;;;;;;5.45;4.95;;;19.10;58.80;;;;;;5033329;28;20056;-41
2021/01/06 16:09:37;;;;;;;4.80;4.50;;;19.10;58.60;;;;;;5030598;28;20036;-43
2021/01/06 16:12:05;;;;;;;4.78;4.43;;;19.10;58.70;;;;;;5032845;28;20033;-46
2021/01/06 16:14:41;;;;;;;6.05;5.65;;;19.10;58.50;;;;;;5037680;28;20128;-45
2021/01/06 16:17:15;;;;;;;5.18;4.75;;;19.10;58.70;;;;;;5038307;28;20028;-42
2021/01/06 16:19:49;;;;;;;6.10;4.23;;;19.10;58.80;;;;;;5038253;28;20029;-43
2021/01/06 16:22:36;;;;;;;5.32;4.93;;;19.00;58.70;;;;;;5056312;28;20031;-44
2021/01/06 16:25:11;;;;;;;5.18;4.78;;;19.10;58.80;;;;;;5040159;28;20583;-42
2021/01/06 16:27:37;;;;;;;4.70;4.40;;;19.10;58.90;;;;;;5041287;28;20127;-55
2021/01/06 16:30:18;;;;;;;5.07;4.57;;;19.10;58.70;;;;;;5041752;28;20124;-41
2021/01/06 16:33:16;;;;;;;4.80;4.40;;;19.10;58.80;;;;;;5043567;28;20021;-37
2021/01/06 16:35:43;;;;;;;4.72;4.43;;;19.10;58.80;;;;;;5042079;28;20025;-43
2021/01/06 16:38:24;;;;;;;4.63;4.32;;;19.10;58.60;;;;;;5043750;28;20060;-41
2021/01/06 16:40:51;;;;;;;5.00;4.50;;;19.10;58.40;;;;;;5042092;28;20033;-42
2021/01/06 16:43:35;;;;;;;4.78;4.38;;;19.10;58.70;;;;;;5043897;28;20032;-42
2021/01/06 16:46:15;;;;;;;4.78;4.30;;;19.10;58.60;;;;;;5042017;28;20025;-43
2021/01/06 16:48:41;;;;;;;4.20;3.95;;;19.10;58.70;;;;;;5061879;28;20068;-45
2021/01/06 16:51:16;;;;;;;4.68;4.30;;;19.10;58.70;;;;;;5041829;28;20072;-47
2021/01/06 16:53:42;;;;;;;4.93;4.55;;;19.10;58.70;;;;;;5043687;28;20063;-43
2021/01/06 16:56:22;;;;;;;5.00;4.60;;;19.10;58.70;;;;;;5040841;28;20028;-44
2021/01/06 16:58:48;;;;;;;8.00;5.07;;;19.10;58.90;;;;;;5042974;28;20049;-44
2021/01/06 17:01:14;;;;;;;5.53;5.15;;;19.10;58.90;;;;;;5043198;28;20060;-43
2021/01/06 17:03:45;;;;;;;4.65;4.35;;;19.10;58.80;;;;;;5043481;28;20062;-44
2021/01/06 17:06:25;;;;;;;5.30;4.90;;;19.10;59.10;;;;;;5059669;28;20033;-45
2021/01/06 17:09:18;;;;;;;5.75;4.82;;;19.10;59.10;;;;;;5046423;28;20053;-44
2021/01/06 17:11:57;;;;;;;4.55;4.15;;;19.00;59.30;;;;;;5044579;28;20037;-43
2021/01/06 17:14:23;;;;;;;4.60;4.20;;;19.10;59.80;;;;;;5044029;28;20035;-41
2021/01/06 17:17:11;;;;;;;4.88;4.53;;;19.10;59.70;;;;;;5046366;28;20025;-43
2021/01/06 17:19:36;;;;;;;4.68;4.32;;;19.10;59.80;;;;;;5045267;28;20025;-42
2021/01/06 17:22:02;;;;;;;4.72;4.35;;;19.10;60.00;;;;;;5046156;28;20398;-41
2021/01/06 17:24:35;;;;;;;4.70;4.40;;;19.10;59.80;;;;;;5048081;28;20109;-41
2021/01/06 17:27:06;;;;;;;5.15;4.13;;;19.10;59.60;;;;;;5044857;28;20037;-40
2021/01/06 17:29:36;;;;;;;4.72;4.32;;;19.10;60.30;;;;;;5060471;28;20044;-41
2021/01/06 17:32:18;;;;;;;5.00;4.50;;;19.10;60.00;;;;;;5044654;28;20029;-46
2021/01/06 17:34:44;;;;;;;4.15;3.85;;;19.10;60.00;;;;;;5045628;28;20044;-39
2021/01/06 17:37:09;;;;;;;5.05;4.65;;;19.00;60.20;;;;;;5046239;28;20647;-40
2021/01/06 17:39:39;;;;;;;4.68;4.38;;;19.00;60.10;;;;;;5047419;28;20119;-40
2021/01/06 17:42:06;;;;;;;4.40;4.10;;;19.00;59.90;;;;;;5046847;28;20044;-43
2021/01/06 17:44:32;;;;;;;4.97;3.70;;;19.10;60.30;;;;;;5044880;28;20083;-43
2021/01/06 17:46:58;;;;;;;4.20;3.90;;;19.10;59.60;;;;;;5046997;28;20217;-43
2021/01/06 17:49:23;;;;;;;4.78;4.47;;;19.20;59.30;;;;;;5044278;28;20152;-48
2021/01/06 17:51:51;;;;;;;6.88;5.68;;;19.10;59.70;;;;;;5041676;28;20135;-43
2021/01/06 17:54:17;;;;;;;4.95;4.55;;;19.10;59.10;;;;;;5057846;28;20025;-40
2021/01/06 17:56:43;;;;;;;4.53;4.22;;;19.10;59.20;;;;;;5045477;28;20035;-43
2021/01/06 17:59:08;;;;;;;5.43;5.03;;;19.10;59.00;;;;;;5047317;28;20203;-40
2021/01/06 18:01:34;;;;;;;5.45;5.03;;;19.10;58.70;;;;;;5045013;28;20090;-42
2021/01/06 18:04:01;;;;;;;5.60;5.20;;;19.00;58.60;;;;;;5041823;28;20361;-45
2021/01/06 18:06:28;;;;;;;7.20;5.53;;;19.00;59.00;;;;;;5046244;28;20128;-45
2021/01/06 18:08:57;;;;;;;6.68;6.03;;;19.00;59.10;;;;;;5044805;28;20053;-44
2021/01/06 18:11:26;;;;;;;6.43;5.60;;;19.00;59.00;;;;;;5044915;28;20709;-46
2021/01/06 18:13:58;;;;;;;7.40;6.72;;;19.00;59.20;;;;;;5044503;28;20120;-42
2021/01/06 18:16:23;;;;;;;11.05;7.78;;;19.00;59.20;;;;;;5046129;28;20589;-43
2021/01/06 18:18:49;;;;;;;16.20;10.27;;;19.00;59.10;;;;;;5043397;28;20029;-42
2021/01/06 18:21:37;;;;;;;14.40;10.13;;;19.00;59.40;;;;;;5047116;28;20033;-42
2021/01/06 18:24:16;;;;;;;13.15;9.70;;;18.90;59.50;;;;;;5044426;28;20025;-48
2021/01/06 18:27:09;;;;;;;13.32;10.52;;;19.00;59.40;;;;;;5045522;28;20032;-41
2021/01/06 18:29:45;;;;;;;15.13;9.90;;;19.00;59.50;;;;;;5043605;28;20737;-41
2021/01/06 18:32:20;;;;;;;15.38;9.23;;;19.00;59.10;;;;;;5042924;28;20032;-42
2021/01/06 18:34:49;;;;;;;29.42;17.33;;;19.00;58.80;;;;;;5044711;28;20075;-42
2021/01/06 18:37:22;;;;;;;26.98;17.20;;;19.00;58.70;;;;;;5041013;28;20042;-41
2021/01/06 18:39:52;;;;;;;23.35;14.50;;;18.90;58.60;;;;;;5046238;28;20103;-43
2021/01/06 18:42:24;;;;;;;16.50;11.57;;;18.90;58.60;;;;;;5044488;28;20028;-43
2021/01/06 18:44:50;;;;;;;18.85;12.57;;;18.90;58.80;;;;;;5043076;28;20024;-42
2021/01/06 18:47:16;;;;;;;16.33;11.38;;;18.80;59.50;;;;;;5044140;28;20033;-42
2021/01/06 18:49:42;;;;;;;14.68;11.10;;;18.80;59.40;;;;;;5043745;28;20033;-45
2021/01/06 18:52:12;;;;;;;13.15;9.88;;;18.80;58.80;;;;;;5041520;28;20448;-42
2021/01/06 18:54:38;;;;;;;13.27;9.38;;;18.90;58.80;;;;;;5044312;28;20037;-42
2021/01/06 18:57:13;;;;;;;13.07;10.15;;;18.90;58.70;;;;;;5043293;28;20035;-41
2021/01/06 18:59:39;;;;;;;13.80;10.25;;;18.80;58.50;;;;;;5043126;28;20080;-42
2021/01/06 19:02:08;;;;;;;13.13;9.50;;;18.80;58.60;;;;;;5041365;28;20036;-42
2021/01/06 19:04:34;;;;;;;13.15;9.73;;;18.80;58.70;;;;;;5044715;28;20091;-42
2021/01/06 19:06:59;;;;;;;16.52;9.43;;;18.80;58.30;;;;;;5044269;28;20029;-40
2021/01/06 19:09:30;;;;;;;10.73;8.93;;;18.80;58.30;;;;;;5044595;28;20060;-39
2021/01/06 19:12:05;;;;;;;11.70;9.13;;;18.80;58.00;;;;;;5044748;28;20040;-41
2021/01/06 19:14:30;;;;;;;10.95;9.00;;;18.80;58.00;;;;;;5043556;28;20026;-42
2021/01/06 19:17:05;;;;;;;11.52;8.85;;;18.70;57.80;;;;;;5040909;28;20033;-42
2021/01/06 19:19:31;;;;;;;11.85;8.93;;;18.70;57.70;;;;;;5042688;28;20025;-42
2021/01/06 19:22:02;;;;;;;11.27;8.90;;;18.70;57.70;;;;;;5043203;28;20432;-42
2021/01/06 19:24:27;;;;;;;11.35;8.43;;;18.70;57.80;;;;;;4694866;28;10000010;-42
2021/01/06 19:27:03;;;;;;;11.88;8.15;;;18.70;57.80;;;;;;5040511;28;20060;-38
2021/01/06 19:29:29;;;;;;;9.60;8.10;;;18.70;58.10;;;;;;5041259;28;20048;-43
2021/01/06 19:32:09;;;;;;;9.93;7.18;;;18.70;58.40;;;;;;5042794;28;20401;-44
2021/01/06 19:34:51;;;;;;;12.32;8.27;;;18.80;58.50;;;;;;5042350;28;20021;-39
2021/01/06 19:37:18;;;;;;;10.48;9.32;;;18.80;58.60;;;;;;5040760;28;20141;-42
2021/01/06 19:39:43;;;;;;;8.90;8.00;;;18.80;59.00;;;;;;5040475;28;20710;-39
2021/01/06 19:42:09;;;;;;;7.82;7.00;;;18.80;59.10;;;;;;5039661;28;20078;-41
2021/01/06 19:44:34;;;;;;;8.15;7.35;;;18.80;59.10;;;;;;5042159;28;20029;-42
2021/01/06 19:47:00;;;;;;;8.15;7.18;;;18.90;59.20;;;;;;5042151;28;20075;-44
2021/01/06 19:49:26;;;;;;;9.27;7.93;;;18.90;59.20;;;;;;5041808;28;20484;-43
2021/01/06 19:51:56;;;;;;;8.63;7.82;;;18.90;59.30;;;;;;5044020;28;20033;-44
2021/01/06 19:54:22;;;;;;;8.23;7.53;;;18.90;59.30;;;;;;5043445;28;20145;-41
2021/01/06 19:56:48;;;;;;;8.35;7.55;;;18.90;59.20;;;;;;5041658;28;20029;-41
2021/01/06 19:59:14;;;;;;;7.63;6.82;;;18.90;59.50;;;;;;5042390;28;20570;-43
2021/01/06 20:01:39;;;;;;;7.88;6.90;;;18.90;59.60;;;;;;5041619;28;20544;-43
2021/01/06 20:04:06;;;;;;;6.82;6.30;;;18.90;59.80;;;;;;5041037;28;20619;-40
2021/01/06 20:06:32;;;;;;;7.53;6.78;;;18.90;59.90;;;;;;5043932;28;20121;-42
2021/01/06 20:09:11;;;;;;;7.55;6.82;;;18.90;60.00;;;;;;5040616;28;20079;-43
2021/01/06 20:11:42;;;;;;;26.45;7.78;;;18.90;60.00;;;;;;5040667;28;20151;-41
2021/01/06 20:14:08;;;;;;;7.63;6.78;;;19.00;60.20;;;;;;5041367;28;20107;-41
2021/01/06 20:16:34;;;;;;;7.97;6.97;;;19.00;60.40;;;;;;5042126;28;20526;-40
2021/01/06 20:19:00;;;;;;;8.07;7.30;;;19.00;61.40;;;;;;5040812;28;20056;-43
2021/01/06 20:21:25;;;;;;;7.90;6.78;;;19.00;60.70;;;;;;5043926;28;20021;-45
2021/01/06 20:23:51;;;;;;;10.07;6.68;;;19.00;60.70;;;;;;4691016;28;10000172;-45
2021/01/06 20:26:20;;;;;;;13.15;7.78;;;19.00;60.70;;;;;;5040072;28;20033;-50
2021/01/06 20:28:46;;;;;;;7.60;7.00;;;19.00;61.00;;;;;;5041142;28;20029;-42
2021/01/06 20:31:12;;;;;;;8.57;7.75;;;19.00;60.20;;;;;;5040507;28;20170;-43
2021/01/06 20:33:38;;;;;;;8.20;7.20;;;19.00;60.10;;;;;;5043715;28;20032;-42
2021/01/06 20:36:04;;;;;;;11.15;8.32;;;19.10;60.40;;;;;;5041769;28;20029;-44
2021/01/06 20:38:30;;;;;;;11.10;8.15;;;19.10;60.40;;;;;;5041175;28;20078;-43
2021/01/06 20:40:55;;;;;;;9.15;8.13;;;19.10;60.50;;;;;;5042035;28;20071;-43
2021/01/06 20:43:21;;;;;;;9.50;8.10;;;19.10;60.50;;;;;;5042243;28;20051;-35
2021/01/06 20:45:47;;;;;;;10.90;7.85;;;19.10;60.50;;;;;;5042761;28;20025;-38
2021/01/06 20:48:20;;;;;;;10.73;7.60;;;19.10;60.60;;;;;;5043637;28;20458;-37
2021/01/06 20:50:46;;;;;;;8.93;8.00;;;19.10;60.60;;;;;;5040624;28;20036;-41
2021/01/06 20:53:12;;;;;;;11.43;7.95;;;19.10;60.50;;;;;;5041608;28;20120;-41
2021/01/06 20:55:37;;;;;;;7.93;7.15;;;19.10;60.60;;;;;;5043545;28;20075;-37
2021/01/06 20:58:03;;;;;;;9.65;7.82;;;19.10;60.50;;;;;;5041311;28;20029;-41
2021/01/06 21:00:29;;;;;;;7.38;6.68;;;19.10;60.50;;;;;;5043193;28;20477;-38